Time;durP1;ratioP1;P1;durP2;ratioP2;P2;SDS_P1;SDS_P2;PMS_P1;PMS_P2;Temp;Humidity;BMP_temperature;BMP_pressure;BME280_temperature;BME280_humidity;BME280_pressure;Samples;Min_cycle;Max_cycle;Signal;HPM_P1;HPM_P2
2022/06/15 00:01:46;;;;;;;8.50;5.93;;;12.70;99.90;;;;;;4850303;29;20533;-78
2022/06/15 00:04:11;;;;;;;8.13;5.77;;;12.60;99.90;;;;;;4860548;29;20112;-78
2022/06/15 00:06:40;;;;;;;12.90;6.67;;;12.60;99.90;;;;;;4845069;29;20056;-78
2022/06/15 00:09:07;;;;;;;11.23;6.43;;;12.60;99.90;;;;;;4844162;29;20083;-78
2022/06/15 00:11:35;;;;;;;11.40;6.40;;;12.60;99.90;;;;;;4853407;29;20551;-78
2022/06/15 00:14:08;;;;;;;10.27;6.00;;;12.60;99.90;;;;;;4886799;29;20047;-79
2022/06/15 00:16:34;;;;;;;9.00;5.63;;;12.60;99.90;;;;;;4851405;29;20044;-78
2022/06/15 00:19:00;;;;;;;7.60;5.97;;;12.60;99.90;;;;;;4858278;29;20037;-79
2022/06/15 00:21:26;;;;;;;7.97;5.30;;;12.60;99.90;;;;;;4862494;29;20455;-79
2022/06/15 00:23:51;;;;;;;7.77;5.77;;;12.60;99.90;;;;;;4849093;29;20059;-78
2022/06/15 00:26:18;;;;;;;8.33;5.47;;;12.60;99.90;;;;;;4867082;29;20047;-79
2022/06/15 00:28:44;;;;;;;10.33;6.37;;;12.60;99.90;;;;;;4858336;29;20040;-79
2022/06/15 00:31:09;;;;;;;10.77;6.00;;;12.60;99.90;;;;;;4845875;29;20399;-79
2022/06/15 00:33:35;;;;;;;10.53;6.17;;;12.60;99.90;;;;;;4861622;29;20128;-79
2022/06/15 00:36:05;;;;;;;11.93;6.30;;;12.60;99.90;;;;;;4855770;29;20038;-79
2022/06/15 00:38:40;;;;;;;7.93;5.83;;;12.50;99.90;;;;;;4855621;29;20542;-79
2022/06/15 00:41:08;;;;;;;8.50;5.70;;;12.50;99.90;;;;;;4868214;29;20418;-79
2022/06/15 00:43:38;;;;;;;9.83;6.13;;;12.50;99.90;;;;;;4865469;29;20057;-79
2022/06/15 00:46:18;;;;;;;10.20;6.00;;;12.50;99.90;;;;;;4875000;29;20127;-79
2022/06/15 00:48:47;;;;;;;12.00;6.30;;;12.50;99.90;;;;;;4860725;29;20044;-79
2022/06/15 00:51:14;;;;;;;8.67;6.47;;;12.40;99.90;;;;;;4840172;29;20048;-79
2022/06/15 00:53:39;;;;;;;12.30;5.70;;;12.40;99.90;;;;;;4856501;29;20047;-79
2022/06/15 00:56:08;;;;;;;10.87;6.33;;;12.40;99.90;;;;;;4876567;29;20775;-78
2022/06/15 00:58:37;;;;;;;13.73;5.93;;;12.40;99.90;;;;;;4863234;29;20041;-79
2022/06/15 01:01:05;;;;;;;10.53;5.97;;;12.40;99.90;;;;;;4845445;29;20140;-78
2022/06/15 01:03:31;;;;;;;11.90;5.97;;;12.40;99.90;;;;;;4859951;29;20406;-79
2022/06/15 01:06:08;;;;;;;8.00;5.73;;;12.30;99.90;;;;;;4850548;29;20447;-79
2022/06/15 01:08:54;;;;;;;14.90;6.40;;;12.40;99.90;;;;;;4853586;29;20045;-79
2022/06/15 01:11:31;;;;;;;10.37;6.50;;;12.30;99.90;;;;;;4862531;29;20378;-78
2022/06/15 01:14:15;;;;;;;10.33;6.10;;;12.20;99.90;;;;;;4845981;29;20069;-78
2022/06/15 01:16:58;;;;;;;9.57;6.00;;;12.20;99.90;;;;;;4874564;29;20053;-79
2022/06/15 01:19:46;;;;;;;13.97;6.43;;;12.20;99.90;;;;;;4852522;29;20040;-78
2022/06/15 01:22:49;;;;;;;9.53;6.10;;;12.20;99.90;;;;;;4878477;29;20060;-78
2022/06/15 01:25:17;;;;;;;8.80;6.23;;;12.10;99.90;;;;;;4862423;29;20541;-78
2022/06/15 01:28:01;;;;;;;10.60;6.40;;;12.10;99.90;;;;;;4855726;29;20048;-78
2022/06/15 01:30:52;;;;;;;9.47;5.87;;;12.00;99.90;;;;;;4848116;29;20048;-79
2022/06/15 01:33:35;;;;;;;10.90;6.20;;;12.00;99.90;;;;;;4871594;29;20076;-78
2022/06/15 01:36:07;;;;;;;9.43;6.47;;;12.00;99.90;;;;;;4852062;29;20033;-78
2022/06/15 01:39:03;;;;;;;6.85;5.93;;;12.00;99.90;;;;;;4868414;29;20059;-78
2022/06/15 01:41:31;;;;;;;12.43;5.90;;;12.00;99.90;;;;;;4852552;29;20045;-78
2022/06/15 01:44:05;;;;;;;9.93;5.97;;;11.90;99.90;;;;;;4862545;29;20124;-78
2022/06/15 01:46:32;;;;;;;11.97;6.20;;;11.90;99.90;;;;;;4857712;29;20053;-79
2022/06/15 01:48:59;;;;;;;9.53;6.53;;;12.00;99.90;;;;;;4869128;29;20439;-78
2022/06/15 01:51:31;;;;;;;8.53;6.60;;;12.00;99.90;;;;;;4862178;29;20495;-78
2022/06/15 01:54:01;;;;;;;13.37;7.20;;;12.00;99.90;;;;;;4864674;29;20079;-78
2022/06/15 01:56:41;;;;;;;10.53;6.60;;;12.00;99.90;;;;;;4861142;29;20140;-78
2022/06/15 01:59:20;;;;;;;11.10;6.70;;;11.90;99.90;;;;;;4877486;29;20422;-79
2022/06/15 02:02:10;;;;;;;11.70;6.80;;;11.90;99.90;;;;;;4865183;29;20048;-79
2022/06/15 02:04:44;;;;;;;10.67;6.77;;;11.90;99.90;;;;;;4866296;29;20048;-79
2022/06/15 02:07:19;;;;;;;11.63;7.10;;;11.80;99.90;;;;;;4873547;29;20052;-78
2022/06/15 02:09:54;;;;;;;8.77;6.57;;;11.80;99.90;;;;;;4853368;29;20040;-79
2022/06/15 02:12:44;;;;;;;11.47;6.67;;;11.90;99.90;;;;;;4853052;29;20104;-78
2022/06/15 02:15:14;;;;;;;13.33;7.20;;;11.80;99.90;;;;;;4857278;29;20121;-79
2022/06/15 02:17:44;;;;;;;13.23;7.00;;;11.80;99.90;;;;;;4868390;29;20041;-79
2022/06/15 02:20:18;;;;;;;11.50;7.17;;;11.80;99.90;;;;;;4858695;29;20116;-79
2022/06/15 02:22:48;;;;;;;10.83;6.97;;;11.80;99.90;;;;;;4856827;29;20050;-79
2022/06/15 02:25:19;;;;;;;12.53;7.20;;;11.80;99.90;;;;;;4867898;29;20100;-79
2022/06/15 02:27:46;;;;;;;14.37;7.43;;;11.80;99.90;;;;;;4865442;29;20045;-78
2022/06/15 02:30:22;;;;;;;11.30;6.93;;;11.80;99.90;;;;;;4841710;29;20385;-79
2022/06/15 02:32:49;;;;;;;10.83;6.60;;;11.70;99.90;;;;;;4851652;29;20076;-79
2022/06/15 02:35:17;;;;;;;11.77;7.40;;;11.70;99.90;;;;;;4857447;29;20124;-79
2022/06/15 02:37:44;;;;;;;12.03;7.10;;;11.70;99.90;;;;;;4846949;29;20089;-79
2022/06/15 02:40:15;;;;;;;12.87;7.23;;;11.70;99.90;;;;;;4842133;29;20076;-79
2022/06/15 02:42:41;;;;;;;11.90;7.30;;;11.70;99.90;;;;;;4853235;29;20448;-79
2022/06/15 02:45:13;;;;;;;10.90;7.03;;;11.70;99.90;;;;;;4857250;29;20053;-79
2022/06/15 02:47:41;;;;;;;10.98;7.40;;;11.70;99.90;;;;;;4868853;29;20051;-79
2022/06/15 02:50:09;;;;;;;10.93;7.20;;;11.60;99.90;;;;;;4867536;29;20088;-78
2022/06/15 02:52:42;;;;;;;12.13;7.30;;;11.60;99.90;;;;;;4871982;29;20076;-79
2022/06/15 02:55:10;;;;;;;10.50;6.93;;;11.60;99.90;;;;;;4859502;29;20452;-79
2022/06/15 02:57:47;;;;;;;13.97;7.30;;;11.60;99.90;;;;;;4850465;29;20029;-79
2022/06/15 03:00:14;;;;;;;12.27;6.77;;;11.50;99.90;;;;;;4866540;29;20105;-78
2022/06/15 03:02:40;;;;;;;10.90;7.90;;;11.50;99.90;;;;;;4850743;29;20052;-79
2022/06/15 03:05:06;;;;;;;12.17;7.83;;;11.50;99.90;;;;;;4867471;29;20048;-79
2022/06/15 03:07:32;;;;;;;13.30;7.17;;;11.50;99.90;;;;;;4852309;29;20080;-78
2022/06/15 03:09:57;;;;;;;12.07;7.20;;;11.50;99.90;;;;;;4841004;29;20545;-78
2022/06/15 03:12:23;;;;;;;14.07;6.97;;;11.50;99.90;;;;;;4847870;29;20490;-78
2022/06/15 03:14:48;;;;;;;11.07;7.20;;;11.40;99.90;;;;;;4845572;29;20407;-79
2022/06/15 03:17:14;;;;;;;10.00;6.90;;;11.40;99.90;;;;;;4866981;29;20079;-78
2022/06/15 03:19:40;;;;;;;12.13;7.20;;;11.40;99.90;;;;;;4859005;29;20105;-79
2022/06/15 03:22:06;;;;;;;11.13;7.63;;;11.40;99.90;;;;;;4865073;29;20053;-79
2022/06/15 03:24:31;;;;;;;13.27;8.03;;;11.40;99.90;;;;;;4844712;29;20045;-79
2022/06/15 03:26:57;;;;;;;13.40;7.50;;;11.50;99.90;;;;;;4837406;29;20119;-78
2022/06/15 03:29:24;;;;;;;11.53;8.00;;;11.50;99.90;;;;;;4863844;29;20528;-79
2022/06/15 03:31:49;;;;;;;11.93;7.80;;;11.50;99.90;;;;;;4848010;29;20061;-79
2022/06/15 03:34:15;;;;;;;13.93;7.50;;;11.50;99.90;;;;;;4842609;29;20045;-79
2022/06/15 03:36:41;;;;;;;11.70;7.60;;;11.50;99.90;;;;;;4845146;29;20052;-78
2022/06/15 03:39:06;;;;;;;14.33;7.97;;;11.60;99.90;;;;;;4855362;29;20045;-79
2022/06/15 03:41:32;;;;;;;13.37;7.70;;;11.60;99.90;;;;;;4835043;29;20041;-78
2022/06/15 03:43:58;;;;;;;15.20;7.97;;;11.60;99.90;;;;;;4875773;29;20040;-79
2022/06/15 03:46:24;;;;;;;10.10;7.30;;;11.70;99.90;;;;;;4865433;29;20092;-79
2022/06/15 03:48:50;;;;;;;14.60;7.93;;;11.80;99.90;;;;;;4858150;29;20071;-79
2022/06/15 03:51:16;;;;;;;11.03;7.10;;;11.90;99.90;;;;;;4860553;29;20525;-79
2022/06/15 03:53:42;;;;;;;14.43;7.33;;;11.90;99.90;;;;;;4840108;29;20076;-78
2022/06/15 03:56:08;;;;;;;12.50;8.17;;;11.80;99.90;;;;;;4858387;29;20044;-79
2022/06/15 03:58:34;;;;;;;11.73;7.43;;;11.90;99.90;;;;;;4862918;29;20513;-79
2022/06/15 04:00:59;;;;;;;10.97;7.17;;;11.90;99.90;;;;;;4857354;29;20053;-79
2022/06/15 04:03:25;;;;;;;10.13;7.03;;;12.00;99.90;;;;;;4855985;29;20041;-78
2022/06/15 04:05:54;;;;;;;10.93;7.60;;;12.00;99.90;;;;;;4850981;29;20051;-79
2022/06/15 04:08:35;;;;;;;12.97;7.90;;;11.90;99.90;;;;;;4860271;29;20056;-79
2022/06/15 04:11:10;;;;;;;16.07;7.67;;;12.00;99.90;;;;;;4856854;29;20045;-79
2022/06/15 04:13:36;;;;;;;12.70;8.03;;;12.00;99.90;;;;;;4841140;29;20661;-79
2022/06/15 04:16:05;;;;;;;15.93;7.70;;;12.00;99.90;;;;;;4855985;29;20033;-79
2022/06/15 04:18:31;;;;;;;13.83;7.30;;;12.00;99.90;;;;;;4853787;29;20048;-79
2022/06/15 04:20:56;;;;;;;13.17;7.17;;;12.10;99.90;;;;;;4845134;29;20448;-79
2022/06/15 04:23:22;;;;;;;11.57;7.40;;;12.10;99.90;;;;;;4844136;29;20045;-79
2022/06/15 04:25:57;;;;;;;14.00;7.60;;;12.10;99.90;;;;;;4868061;29;20400;-79
2022/06/15 04:28:24;;;;;;;13.43;7.67;;;12.20;99.90;;;;;;4860313;29;20049;-79
2022/06/15 04:30:50;;;;;;;12.53;7.40;;;12.20;99.90;;;;;;4858485;29;20523;-79
2022/06/15 04:33:16;;;;;;;14.63;7.13;;;12.30;99.90;;;;;;4829625;29;20091;-79
2022/06/15 04:35:43;;;;;;;11.97;7.30;;;12.30;99.90;;;;;;4860225;29;20495;-79
2022/06/15 04:38:10;;;;;;;12.03;7.37;;;12.30;99.90;;;;;;4857393;29;20055;-79
2022/06/15 04:40:37;;;;;;;12.73;7.20;;;12.40;99.90;;;;;;4838926;29;20055;-79
2022/06/15 04:43:05;;;;;;;12.93;7.60;;;12.50;99.90;;;;;;4830500;29;20554;-79
2022/06/15 04:45:30;;;;;;;13.97;7.27;;;12.50;99.90;;;;;;4849075;29;20518;-79
2022/06/15 04:47:56;;;;;;;12.67;7.10;;;12.60;99.90;;;;;;4877723;29;20040;-79
2022/06/15 04:50:22;;;;;;;11.13;6.97;;;12.70;99.90;;;;;;4852895;29;20052;-79
2022/06/15 04:52:47;;;;;;;11.93;7.40;;;12.80;99.90;;;;;;4852286;29;20049;-79
2022/06/15 04:55:18;;;;;;;11.03;6.73;;;12.90;99.90;;;;;;4856574;29;20089;-79
2022/06/15 04:57:44;;;;;;;10.87;6.63;;;12.90;99.90;;;;;;4861083;29;20047;-78
2022/06/15 05:00:15;;;;;;;10.73;7.17;;;13.00;99.90;;;;;;4853775;29;20045;-79
2022/06/15 05:02:41;;;;;;;11.83;7.50;;;13.00;99.90;;;;;;4863567;29;20072;-79
2022/06/15 05:05:07;;;;;;;15.10;6.97;;;13.00;99.90;;;;;;4868437;29;20124;-79
2022/06/15 05:07:33;;;;;;;14.03;7.07;;;13.10;99.90;;;;;;4847732;29;20073;-79
2022/06/15 05:10:01;;;;;;;9.87;6.70;;;13.10;99.90;;;;;;4880675;29;20040;-79
2022/06/15 05:12:26;;;;;;;9.80;6.27;;;13.10;99.90;;;;;;4863125;29;20151;-79
2022/06/15 05:14:52;;;;;;;11.27;6.63;;;13.10;99.90;;;;;;4841560;29;20125;-79
2022/06/15 05:17:20;;;;;;;11.90;6.73;;;13.10;99.90;;;;;;4861665;29;20050;-79
2022/06/15 05:19:46;;;;;;;11.73;6.80;;;13.10;99.90;;;;;;4889646;29;20029;-79
2022/06/15 05:22:12;;;;;;;9.00;6.43;;;13.10;99.90;;;;;;4852344;29;20116;-78
2022/06/15 05:24:38;;;;;;;13.63;6.80;;;13.20;99.90;;;;;;4882712;29;20092;-79
2022/06/15 05:27:05;;;;;;;10.17;6.20;;;13.20;99.90;;;;;;4865464;29;20040;-79
2022/06/15 05:29:31;;;;;;;10.37;6.10;;;13.30;99.90;;;;;;4881904;29;20044;-79
2022/06/15 05:31:57;;;;;;;9.00;6.27;;;13.40;99.90;;;;;;4868713;29;20123;-80
2022/06/15 05:34:23;;;;;;;8.43;6.50;;;13.40;99.90;;;;;;4849813;29;20045;-80
2022/06/15 05:36:49;;;;;;;9.43;5.87;;;13.50;99.90;;;;;;4854697;29;20569;-80
2022/06/15 05:39:16;;;;;;;14.50;7.10;;;13.60;99.90;;;;;;4855793;29;20061;-80
2022/06/15 05:41:42;;;;;;;10.83;6.40;;;13.60;99.90;;;;;;4858406;29;20040;-80
2022/06/15 05:46:35;;;;;;;11.43;6.80;;;13.80;99.90;;;;;;4861711;29;20135;-80
2022/06/15 05:49:02;;;;;;;11.00;5.70;;;13.90;99.90;;;;;;4865092;29;20052;-80
2022/06/15 05:51:29;;;;;;;10.73;5.77;;;14.00;99.90;;;;;;4872161;29;20051;-80
2022/06/15 05:53:55;;;;;;;9.93;6.23;;;14.00;99.90;;;;;;4850889;29;20502;-80
2022/06/15 05:56:22;;;;;;;11.60;6.23;;;14.20;99.90;;;;;;4848956;29;20444;-79
2022/06/15 05:58:49;;;;;;;11.33;6.17;;;14.30;99.90;;;;;;4852871;29;20056;-79
2022/06/15 06:01:25;;;;;;;8.83;5.27;;;14.30;99.90;;;;;;4848267;29;20571;-79
2022/06/15 06:03:51;;;;;;;10.80;5.80;;;14.50;99.90;;;;;;4858701;29;20057;-79
2022/06/15 06:06:17;;;;;;;10.13;5.70;;;14.50;99.90;;;;;;4865141;29;20532;-80
2022/06/15 06:08:43;;;;;;;9.23;5.83;;;14.70;99.90;;;;;;4835101;29;20125;-79
2022/06/15 06:11:09;;;;;;;10.43;5.70;;;14.90;99.90;;;;;;4845255;29;20048;-79
2022/06/15 06:13:35;;;;;;;10.40;6.13;;;15.10;99.90;;;;;;4843891;29;20046;-79
2022/06/15 06:16:00;;;;;;;11.27;6.10;;;15.30;99.90;;;;;;4871795;29;20037;-80
2022/06/15 06:18:26;;;;;;;10.30;5.30;;;15.50;99.90;;;;;;4859174;29;20124;-80
2022/06/15 06:20:53;;;;;;;8.57;4.57;;;15.60;99.90;;;;;;4852052;29;20052;-79
2022/06/15 06:23:19;;;;;;;8.00;4.82;;;15.60;99.90;;;;;;4853393;29;20551;-80
2022/06/15 06:25:50;;;;;;;9.02;4.63;;;15.60;99.90;;;;;;4855599;29;20544;-79
2022/06/15 06:28:32;;;;;;;7.20;4.72;;;15.80;99.90;;;;;;4878771;29;20064;-80
2022/06/15 06:31:00;;;;;;;6.37;4.80;;;16.00;99.90;;;;;;4846449;29;20436;-80
2022/06/15 06:33:28;;;;;;;10.65;4.93;;;16.30;99.90;;;;;;4866728;29;20306;-79
2022/06/15 06:35:55;;;;;;;7.40;4.43;;;16.40;99.90;;;;;;4853808;29;20120;-79
2022/06/15 06:38:21;;;;;;;8.10;4.18;;;16.50;99.90;;;;;;4857820;29;20043;-79
2022/06/15 06:40:59;;;;;;;9.90;4.25;;;16.70;99.90;;;;;;4854909;29;20507;-79
2022/06/15 06:43:25;;;;;;;6.40;4.00;;;16.90;99.90;;;;;;4855830;29;20052;-80
2022/06/15 06:45:50;;;;;;;6.43;3.88;;;17.10;99.90;;;;;;4852352;29;20041;-80
2022/06/15 06:48:16;;;;;;;7.13;4.38;;;17.20;99.90;;;;;;4850486;29;20442;-79
2022/06/15 06:50:42;;;;;;;5.90;3.67;;;17.30;99.90;;;;;;4862692;29;20049;-79
2022/06/15 06:53:11;;;;;;;8.57;3.30;;;17.40;99.90;;;;;;4860753;29;20074;-80
2022/06/15 06:55:37;;;;;;;4.97;3.15;;;17.60;99.90;;;;;;4857082;29;20089;-80
2022/06/15 06:58:04;;;;;;;6.50;3.78;;;17.70;99.90;;;;;;4861644;29;20050;-80
2022/06/15 07:00:31;;;;;;;13.10;3.58;;;17.90;99.90;;;;;;4828507;29;20037;-81
2022/06/15 07:03:02;;;;;;;7.95;4.10;;;18.10;99.90;;;;;;4858881;29;20403;-80
2022/06/15 07:05:28;;;;;;;7.78;3.72;;;18.20;99.90;;;;;;4861233;29;20048;-80
2022/06/15 07:07:54;;;;;;;6.72;3.35;;;18.20;99.90;;;;;;4843784;29;20424;-80
2022/06/15 07:10:20;;;;;;;3.92;3.50;;;18.30;99.90;;;;;;4845149;29;20484;-79
2022/06/15 07:12:45;;;;;;;5.50;3.50;;;18.40;99.90;;;;;;4846519;29;20075;-79
2022/06/15 07:15:13;;;;;;;9.93;3.90;;;18.40;99.90;;;;;;4861397;29;20617;-80
2022/06/15 07:17:40;;;;;;;7.13;4.03;;;18.50;99.90;;;;;;4864230;29;20069;-80
2022/06/15 07:20:07;;;;;;;4.65;3.03;;;18.60;99.90;;;;;;4869097;29;20371;-79
2022/06/15 07:22:34;;;;;;;7.38;3.60;;;18.70;99.90;;;;;;4846844;29;20049;-80
2022/06/15 07:25:00;;;;;;;7.80;3.72;;;18.80;99.90;;;;;;4853501;29;20127;-80
2022/06/15 07:27:26;;;;;;;6.55;3.72;;;18.80;99.90;;;;;;4858406;29;20053;-80
2022/06/15 07:29:53;;;;;;;9.32;3.75;;;18.80;99.90;;;;;;4860515;29;20073;-80
2022/06/15 07:32:19;;;;;;;6.20;3.58;;;19.00;99.90;;;;;;4844875;29;20045;-81
2022/06/15 07:34:45;;;;;;;8.70;4.25;;;19.20;99.90;;;;;;4858247;29;20077;-79
2022/06/15 07:37:11;;;;;;;7.07;4.05;;;19.10;99.90;;;;;;4840704;29;20041;-80
2022/06/15 07:39:38;;;;;;;8.57;3.53;;;19.20;99.90;;;;;;4836759;29;20045;-80
2022/06/15 07:42:07;;;;;;;7.97;3.17;;;19.30;99.90;;;;;;4835559;29;20037;-80
2022/06/15 07:44:34;;;;;;;4.93;2.92;;;19.40;99.90;;;;;;4853927;29;20127;-80
2022/06/15 07:50:00;;;;;;;5.30;3.00;;;19.70;99.90;;;;;;4852711;29;20055;-81
2022/06/15 07:52:35;;;;;;;10.25;3.83;;;19.80;99.90;;;;;;4843141;29;20064;-81
2022/06/15 07:55:01;;;;;;;9.25;4.18;;;20.00;99.90;;;;;;4893281;29;20041;-80
2022/06/15 07:57:27;;;;;;;5.93;4.18;;;20.10;99.90;;;;;;4870590;29;20099;-80
2022/06/15 07:59:53;;;;;;;10.20;4.18;;;20.20;99.90;;;;;;4848553;29;20059;-80
2022/06/15 08:02:19;;;;;;;7.18;4.40;;;20.10;99.90;;;;;;4852981;29;20045;-81
2022/06/15 08:04:45;;;;;;;9.13;4.32;;;20.00;99.90;;;;;;4840481;29;20170;-81
2022/06/15 08:07:13;;;;;;;6.30;3.72;;;20.10;99.90;;;;;;4845031;29;20064;-81
2022/06/15 08:09:39;;;;;;;6.65;4.22;;;20.20;99.90;;;;;;4838890;29;20100;-80
2022/06/15 08:12:11;;;;;;;8.63;4.57;;;20.30;99.90;;;;;;4857213;29;20124;-80
2022/06/15 08:14:43;;;;;;;5.88;4.10;;;20.30;99.90;;;;;;4847666;29;20076;-80
2022/06/15 08:17:13;;;;;;;6.72;3.72;;;20.20;99.90;;;;;;4870497;29;20038;-80
2022/06/15 08:19:43;;;;;;;5.75;3.97;;;20.20;99.90;;;;;;4849409;29;20045;-80
2022/06/15 08:22:10;;;;;;;7.43;4.38;;;20.30;99.90;;;;;;4837965;29;20061;-80
2022/06/15 08:24:36;;;;;;;8.80;3.85;;;20.20;99.90;;;;;;4848952;29;20037;-81
2022/06/15 08:27:03;;;;;;;4.63;3.72;;;20.30;99.90;;;;;;4843666;29;20064;-81
2022/06/15 08:29:29;;;;;;;8.32;3.72;;;20.40;99.90;;;;;;4848743;29;20070;-80
2022/06/15 08:31:57;;;;;;;6.53;3.55;;;20.50;99.90;;;;;;4857133;29;20038;-79
2022/06/15 08:34:28;;;;;;;4.00;3.40;;;20.50;99.90;;;;;;4848985;29;20045;-79
2022/06/15 08:36:55;;;;;;;4.60;3.15;;;20.60;99.90;;;;;;4872428;29;20442;-81
2022/06/15 08:39:20;;;;;;;7.45;3.28;;;20.60;99.90;;;;;;4865350;29;20101;-81
2022/06/15 08:42:00;;;;;;;5.68;2.75;;;20.70;99.90;;;;;;4846038;29;20044;-81
2022/06/15 08:44:48;;;;;;;6.50;3.20;;;20.90;99.90;;;;;;4874169;29;20076;-81
2022/06/15 08:47:41;;;;;;;5.78;3.83;;;20.70;99.90;;;;;;4871388;29;20048;-80
2022/06/15 08:50:30;;;;;;;3.92;2.70;;;20.30;99.90;;;;;;4855058;29;20048;-80
2022/06/15 08:53:21;;;;;;;4.60;3.17;;;19.80;99.90;;;;;;4864892;29;20045;-79
2022/06/15 08:56:25;;;;;;;5.45;3.50;;;19.90;99.90;;;;;;4852633;29;20120;-81
2022/06/15 08:59:06;;;;;;;6.10;3.60;;;20.10;99.90;;;;;;4851548;29;20146;-81
2022/06/15 09:01:37;;;;;;;5.78;3.70;;;20.20;99.90;;;;;;4857246;29;20056;-80
2022/06/15 09:04:24;;;;;;;4.57;3.30;;;20.20;99.90;;;;;;4874561;29;20538;-81
2022/06/15 09:07:18;;;;;;;5.40;3.13;;;20.40;99.90;;;;;;4857670;29;20056;-80
2022/06/15 09:10:01;;;;;;;4.65;2.80;;;20.50;99.90;;;;;;4848241;29;20063;-79
2022/06/15 09:12:55;;;;;;;5.00;2.92;;;20.10;99.90;;;;;;4854904;29;20045;-79
2022/06/15 09:15:54;;;;;;;5.78;2.35;;;20.10;99.90;;;;;;4848221;29;20053;-79
2022/06/15 09:18:35;;;;;;;6.07;2.35;;;20.40;99.90;;;;;;4841154;29;20053;-79
2022/06/15 09:21:09;;;;;;;3.47;2.08;;;20.70;99.90;;;;;;4869366;29;20151;-80
2022/06/15 09:23:44;;;;;;;5.88;2.53;;;21.00;99.90;;;;;;4861150;29;20053;-79
2022/06/15 09:26:18;;;;;;;2.88;2.20;;;21.20;99.90;;;;;;4869236;29;20533;-79
2022/06/15 09:28:49;;;;;;;4.05;2.80;;;21.10;99.90;;;;;;4857459;29;20065;-79
2022/06/15 09:31:26;;;;;;;6.00;2.93;;;20.70;99.90;;;;;;4856837;29;20052;-80
2022/06/15 09:33:58;;;;;;;4.45;2.75;;;20.30;99.90;;;;;;4854832;29;20049;-79
2022/06/15 09:36:29;;;;;;;4.95;2.35;;;19.90;99.90;;;;;;4853853;29;20045;-80
2022/06/15 09:38:55;;;;;;;6.75;2.55;;;19.50;99.90;;;;;;4857192;29;20132;-79
2022/06/15 09:41:45;;;;;;;4.43;2.70;;;19.40;99.90;;;;;;4858349;29;20403;-80
2022/06/15 09:44:40;;;;;;;5.93;3.13;;;19.70;99.90;;;;;;4853463;29;20049;-80
2022/06/15 09:47:12;;;;;;;3.97;2.92;;;19.90;99.90;;;;;;4851173;29;20159;-79
2022/06/15 09:49:56;;;;;;;5.40;2.50;;;19.80;99.90;;;;;;4857958;29;20396;-80
2022/06/15 09:52:37;;;;;;;4.47;2.67;;;19.70;99.90;;;;;;4838911;29;20041;-78
2022/06/15 09:55:23;;;;;;;3.63;2.70;;;19.70;99.90;;;;;;4860039;29;20380;-78
2022/06/15 09:57:50;;;;;;;3.75;2.70;;;19.80;99.90;;;;;;4873231;29;20045;-80
2022/06/15 10:00:17;;;;;;;3.63;2.47;;;19.70;99.90;;;;;;4855788;29;20048;-80
2022/06/15 10:02:52;;;;;;;3.42;2.40;;;19.70;99.90;;;;;;4840258;29;20464;-79
2022/06/15 10:05:27;;;;;;;5.97;2.50;;;19.50;99.90;;;;;;4851540;29;20045;-80
2022/06/15 10:07:54;;;;;;;4.38;2.28;;;19.30;99.90;;;;;;4853794;29;20055;-79
2022/06/15 10:10:35;;;;;;;3.38;2.20;;;19.50;99.90;;;;;;4854334;29;20057;-80
2022/06/15 10:13:16;;;;;;;6.90;2.80;;;19.90;99.90;;;;;;4841010;29;20048;-79
2022/06/15 10:15:42;;;;;;;4.00;2.88;;;20.10;99.90;;;;;;4861824;29;20140;-79
2022/06/15 10:18:35;;;;;;;3.67;2.70;;;20.30;99.90;;;;;;4836628;29;20055;-81
2022/06/15 10:21:13;;;;;;;5.18;3.00;;;20.60;99.90;;;;;;4853379;29;20060;-80
2022/06/15 10:23:49;;;;;;;4.63;2.70;;;21.00;99.90;;;;;;4850106;29;20045;-79
2022/06/15 10:26:41;;;;;;;4.85;2.53;;;21.20;99.90;;;;;;4857955;29;20345;-79
2022/06/15 10:29:16;;;;;;;4.25;2.75;;;21.50;99.90;;;;;;4863532;29;20503;-79
2022/06/15 10:32:00;;;;;;;4.78;2.50;;;21.70;99.90;;;;;;4858773;29;20037;-80
2022/06/15 10:34:32;;;;;;;4.70;2.50;;;21.80;91.80;;;;;;4873497;29;20049;-79
2022/06/15 10:36:59;;;;;;;;;;;21.90;99.90;;;;;;4857736;29;20041;-80
2022/06/15 10:39:28;;;;;;;4.53;2.60;;;21.70;96.80;;;;;;4860155;29;20006;-79
2022/06/15 10:42:20;;;;;;;6.80;2.50;;;21.80;99.90;;;;;;4861894;29;20048;-80
2022/06/15 10:44:56;;;;;;;3.60;2.60;;;21.90;99.20;;;;;;4833779;29;20052;-80
2022/06/15 10:47:47;;;;;;;4.25;2.38;;;22.20;99.90;;;;;;4844395;29;20053;-80
2022/06/15 10:50:42;;;;;;;4.18;2.38;;;22.40;99.90;;;;;;4857229;29;20051;-79
2022/06/15 10:53:24;;;;;;;4.32;2.58;;;22.50;95.90;;;;;;4837359;29;20124;-80
2022/06/15 11:02:07;;;;;;;4.38;2.83;;;22.70;92.80;;;;;;4852914;29;20395;-80
2022/06/15 11:04:50;;;;;;;4.47;2.67;;;22.60;90.90;;;;;;4850623;29;20120;-79
2022/06/15 11:07:22;;;;;;;5.22;2.70;;;22.60;91.90;;;;;;4864130;29;20041;-80
2022/06/15 11:09:54;;;;;;;;;;;22.60;96.00;;;;;;4850752;29;20048;-78
2022/06/15 11:13:00;;;;;;;4.88;2.53;;;22.10;90.90;;;;;;4851603;29;19995;-80
2022/06/15 11:18:28;;;;;;;2.53;2.30;;;21.90;99.90;;;;;;4855715;29;20116;-79
2022/06/15 11:20:56;;;;;;;3.88;2.35;;;22.20;99.90;;;;;;4835730;29;20045;-79
2022/06/15 11:23:34;;;;;;;6.03;2.88;;;22.20;95.70;;;;;;4853030;29;20126;-80
2022/06/15 11:29:05;;;;;;;3.25;2.63;;;21.90;98.00;;;;;;4855768;29;20461;-80
2022/06/15 11:31:31;;;;;;;6.30;2.70;;;21.80;97.50;;;;;;4858942;29;20048;-79
2022/06/15 11:34:09;;;;;;;4.10;2.30;;;22.00;99.40;;;;;;4855811;29;20048;-80
2022/06/15 11:36:58;;;;;;;4.20;3.28;;;21.90;96.80;;;;;;4854741;29;20514;-80
2022/06/15 11:39:32;;;;;;;5.70;2.53;;;21.50;92.70;;;;;;4852611;29;20508;-80
2022/06/15 11:41:59;;;;;;;3.90;2.83;;;21.20;98.50;;;;;;4849237;29;20044;-79
2022/06/15 11:44:27;;;;;;;3.58;2.65;;;21.20;98.80;;;;;;4854351;29;20037;-79
2022/06/15 11:47:16;;;;;;;3.55;2.83;;;21.40;95.30;;;;;;4852939;29;20045;-79
2022/06/15 11:49:53;;;;;;;5.28;2.30;;;21.30;90.50;;;;;;4855840;29;20045;-79
2022/06/15 11:52:40;;;;;;;4.25;2.45;;;21.40;99.90;;;;;;4844628;29;20085;-79
2022/06/15 11:55:14;;;;;;;3.55;2.60;;;21.60;99.90;;;;;;4852228;29;20049;-79
2022/06/15 11:58:14;;;;;;;6.40;2.83;;;22.00;95.10;;;;;;4852245;29;20041;-80
2022/06/15 12:01:17;;;;;;;7.13;2.92;;;22.20;92.70;;;;;;4853224;29;20041;-79
2022/06/15 12:04:17;;;;;;;5.00;2.42;;;22.00;92.20;;;;;;4809437;29;20144;-78
2022/06/15 12:06:57;;;;;;;2.97;2.35;;;21.70;94.00;;;;;;4858289;29;20041;-79
2022/06/15 12:09:37;;;;;;;4.00;2.50;;;21.50;95.60;;;;;;4857110;29;20101;-80
2022/06/15 12:12:43;;;;;;;4.57;2.42;;;21.50;99.90;;;;;;4862603;29;20060;-78
2022/06/15 12:15:18;;;;;;;5.68;2.80;;;21.80;99.50;;;;;;4843120;29;20427;-79
2022/06/15 12:17:54;;;;;;;3.22;2.90;;;21.90;93.50;;;;;;4858149;29;20045;-80
2022/06/15 12:20:28;;;;;;;4.93;2.30;;;21.90;93.20;;;;;;4844786;29;20086;-80
2022/06/15 12:23:01;;;;;;;4.28;2.80;;;22.20;95.90;;;;;;4842653;29;20490;-79
2022/06/15 12:25:43;;;;;;;5.72;2.67;;;22.40;92.10;;;;;;4857824;29;20061;-78
2022/06/15 12:28:19;;;;;;;4.15;2.72;;;22.40;90.70;;;;;;4875901;29;20383;-78
2022/06/15 12:30:56;;;;;;;5.18;2.65;;;22.60;93.10;;;;;;4859043;29;20042;-80
2022/06/15 12:33:25;;;;;;;4.90;2.80;;;22.70;93.00;;;;;;4860327;29;20491;-80
2022/06/15 12:35:53;;;;;;;3.92;2.45;;;22.80;81.00;;;;;;4862768;29;20128;-79
2022/06/15 12:38:41;;;;;;;7.00;3.20;;;23.10;91.00;;;;;;4857447;29;20583;-79
2022/06/15 12:44:28;;;;;;;5.90;2.85;;;22.90;73.90;;;;;;4863080;29;20189;-79
2022/06/15 12:46:55;;;;;;;15.02;3.63;;;22.50;76.80;;;;;;4862238;29;20067;-79
2022/06/15 12:49:34;;;;;;;10.43;2.95;;;22.50;79.70;;;;;;4853957;29;20041;-80
2022/06/15 12:52:23;;;;;;;4.75;2.50;;;22.80;76.30;;;;;;4863940;29;20063;-79
2022/06/15 12:55:14;;;;;;;3.03;2.30;;;23.10;83.80;;;;;;4847435;29;20041;-80
2022/06/15 12:57:54;;;;;;;3.92;2.20;;;22.90;81.80;;;;;;4860342;29;20033;-78
2022/06/15 13:00:33;;;;;;;6.72;2.65;;;22.50;85.70;;;;;;4857042;29;20117;-80
2022/06/15 13:03:22;;;;;;;5.43;2.20;;;22.30;81.60;;;;;;4860423;29;20049;-79
2022/06/15 13:05:48;;;;;;;3.53;2.15;;;22.10;84.30;;;;;;4846319;29;20061;-78
2022/06/15 13:08:16;;;;;;;3.90;2.30;;;22.40;86.70;;;;;;4844819;29;20144;-80
2022/06/15 13:10:54;;;;;;;3.30;2.50;;;22.70;87.80;;;;;;4865819;29;20084;-79
2022/06/15 13:13:30;;;;;;;4.85;2.58;;;23.00;76.20;;;;;;4842796;29;20415;-77
2022/06/15 13:15:59;;;;;;;5.85;2.90;;;23.10;77.50;;;;;;4852584;29;20052;-79
2022/06/15 13:18:39;;;;;;;5.00;2.25;;;22.90;76.60;;;;;;4844187;29;20037;-80
2022/06/15 13:21:06;;;;;;;6.55;2.70;;;22.30;77.30;;;;;;4862536;29;20502;-79
2022/06/15 13:23:58;;;;;;;2.60;2.40;;;22.00;88.60;;;;;;4858620;29;20445;-79
2022/06/15 13:26:43;;;;;;;;;;;22.00;80.40;;;;;;4851699;29;20049;-79
2022/06/15 13:29:12;;;;;;;3.22;2.60;;;22.20;93.20;;;;;;4857144;29;20010;-78
2022/06/15 13:31:49;;;;;;;3.05;2.30;;;22.50;84.90;;;;;;4858371;29;20072;-79